createdAt,value
2023-01-29T00:00:10.519Z,10.63
2023-01-29T00:02:41.163Z,12.07
2023-01-29T00:05:25.956Z,12.63
2023-01-29T00:07:56.188Z,12.20
2023-01-29T00:10:25.820Z,12.13
2023-01-29T00:12:53.867Z,11.90
2023-01-29T00:15:21.547Z,12.43
2023-01-29T00:17:49.168Z,11.50
2023-01-29T00:20:17.899Z,11.90
2023-01-29T00:22:45.687Z,12.10
2023-01-29T00:25:19.723Z,12.57
2023-01-29T00:27:47.648Z,10.77
2023-01-29T00:30:19.347Z,12.17
2023-01-29T00:32:47.256Z,10.77
2023-01-29T00:35:14.973Z,12.33
2023-01-29T00:37:43.047Z,13.13
2023-01-29T00:40:12.196Z,12.33
2023-01-29T00:42:58.441Z,12.60
2023-01-29T00:45:26.130Z,12.57
2023-01-29T00:47:53.738Z,12.40
2023-01-29T00:50:22.181Z,12.90
2023-01-29T00:52:51.807Z,12.63
2023-01-29T00:55:19.601Z,12.43
2023-01-29T00:57:48.068Z,12.93
2023-01-29T01:00:19.489Z,12.03
2023-01-29T01:03:05.630Z,12.27
2023-01-29T01:05:34.196Z,12.37
2023-01-29T01:08:01.870Z,12.83
2023-01-29T01:10:33.105Z,12.47
2023-01-29T01:13:05.527Z,10.90
2023-01-29T01:15:40.065Z,12.37
2023-01-29T01:18:07.867Z,12.80
2023-01-29T01:20:36.521Z,11.50
2023-01-29T01:23:04.449Z,12.40
2023-01-29T01:25:32.615Z,12.07
2023-01-29T01:28:03.383Z,12.30
2023-01-29T01:30:31.034Z,12.13
2023-01-29T01:32:59.641Z,12.83
2023-01-29T01:35:27.279Z,13.50
2023-01-29T01:37:54.855Z,12.50
2023-01-29T01:40:25.474Z,12.83
2023-01-29T01:42:59.501Z,11.40
2023-01-29T01:45:35.734Z,11.07
2023-01-29T01:48:17.223Z,13.53
2023-01-29T01:50:58.689Z,12.77
2023-01-29T01:53:37.405Z,13.27
2023-01-29T01:56:10.568Z,13.77
2023-01-29T01:58:43.850Z,13.37
2023-01-29T02:01:12.838Z,13.47
2023-01-29T02:04:14.591Z,13.10
2023-01-29T02:07:02.388Z,13.80
2023-01-29T02:09:39.585Z,13.53
2023-01-29T02:12:11.979Z,12.87
2023-01-29T02:14:43.450Z,13.07
2023-01-29T02:17:20.032Z,13.53
2023-01-29T02:20:27.090Z,13.27
2023-01-29T02:23:40.860Z,13.20
2023-01-29T02:26:37.527Z,13.27
2023-01-29T02:29:25.254Z,13.30
2023-01-29T02:32:22.919Z,13.40
2023-01-29T02:35:29.268Z,13.53
2023-01-29T02:38:27.245Z,12.80
2023-01-29T02:41:09.900Z,13.47
2023-01-29T02:43:54.019Z,13.27
2023-01-29T02:46:39.063Z,14.27
2023-01-29T02:49:30.448Z,13.77
2023-01-29T02:52:03.941Z,13.93
2023-01-29T02:54:55.502Z,13.43
2023-01-29T02:57:29.308Z,14.00
2023-01-29T03:00:26.339Z,14.13
2023-01-29T03:03:13.429Z,13.83
2023-01-29T03:05:54.900Z,14.13
2023-01-29T03:08:45.889Z,13.30
2023-01-29T03:11:17.755Z,13.77
2023-01-29T03:13:53.183Z,15.07
2023-01-29T03:16:51.433Z,13.47
2023-01-29T03:19:41.908Z,14.60
2023-01-29T03:22:21.879Z,14.90
2023-01-29T03:25:18.141Z,16.27
2023-01-29T03:28:15.685Z,15.80
2023-01-29T03:31:12.989Z,15.47
2023-01-29T03:33:54.263Z,15.37
2023-01-29T03:37:01.235Z,14.87
2023-01-29T03:39:29.755Z,15.27
2023-01-29T03:42:35.012Z,15.83
2023-01-29T03:45:14.836Z,15.53
2023-01-29T03:48:04.090Z,16.60
2023-01-29T03:51:17.256Z,16.27
2023-01-29T03:54:07.884Z,16.63
2023-01-29T03:56:50.476Z,15.67
2023-01-29T04:00:14.867Z,15.80
2023-01-29T04:03:21.819Z,17.80
2023-01-29T04:06:16.680Z,17.27
2023-01-29T04:09:04.283Z,16.03
2023-01-29T04:11:36.242Z,16.77
2023-01-29T04:14:06.176Z,16.40
2023-01-29T04:16:41.243Z,17.83
2023-01-29T04:19:15.109Z,17.67
2023-01-29T04:21:45.279Z,16.50
2023-01-29T04:24:14.184Z,16.17
2023-01-29T04:26:54.823Z,17.93
2023-01-29T04:29:47.314Z,16.70
2023-01-29T04:32:38.773Z,17.13
2023-01-29T04:35:30.393Z,16.77
2023-01-29T04:38:09.576Z,17.37
2023-01-29T04:40:51.075Z,17.00
2023-01-29T04:43:55.345Z,18.53
2023-01-29T04:47:07.355Z,17.83
2023-01-29T04:49:55.558Z,18.07
2023-01-29T04:52:59.011Z,16.97
2023-01-29T04:55:40.357Z,17.80
2023-01-29T04:58:28.397Z,18.50
2023-01-29T05:00:58.076Z,17.37
2023-01-29T05:03:27.268Z,18.53
2023-01-29T05:05:57.233Z,19.07
2023-01-29T05:08:27.228Z,19.00
2023-01-29T05:10:57.012Z,18.10
2023-01-29T05:13:26.702Z,19.63
2023-01-29T05:16:17.646Z,18.60
2023-01-29T05:18:45.941Z,19.30
2023-01-29T05:21:13.751Z,19.70
2023-01-29T05:23:53.038Z,18.27
2023-01-29T05:26:39.770Z,18.57
2023-01-29T05:29:07.551Z,19.27
2023-01-29T05:31:35.145Z,17.30
2023-01-29T05:34:02.773Z,21.00
2023-01-29T05:36:30.656Z,19.70
2023-01-29T05:38:59.165Z,21.07
2023-01-29T05:41:26.750Z,21.23
2023-01-29T05:43:54.384Z,21.37
2023-01-29T05:46:21.996Z,20.97
2023-01-29T05:48:51.955Z,15.23
2023-01-29T05:51:19.585Z,19.97
2023-01-29T05:53:47.143Z,20.83
2023-01-29T05:56:14.727Z,19.53
2023-01-29T05:58:42.413Z,22.73
2023-01-29T06:01:19.847Z,20.90
2023-01-29T06:03:47.843Z,18.17
2023-01-29T06:06:16.146Z,20.63
2023-01-29T06:08:44.035Z,19.13
2023-01-29T06:11:13.812Z,19.70
2023-01-29T06:13:41.624Z,21.00
2023-01-29T06:16:11.149Z,19.40
2023-01-29T06:18:39.910Z,20.43
2023-01-29T06:21:11.076Z,21.07
2023-01-29T06:23:39.452Z,19.07
2023-01-29T06:26:13.195Z,19.53
2023-01-29T06:28:41.680Z,21.83
2023-01-29T06:31:37.717Z,20.37
2023-01-29T06:33:58.196Z,21.40
2023-01-29T06:36:25.766Z,19.00
2023-01-29T06:38:53.475Z,20.93
2023-01-29T06:41:25.201Z,19.77
2023-01-29T06:43:53.043Z,20.77
2023-01-29T06:46:21.045Z,21.33
2023-01-29T06:48:48.619Z,20.70
2023-01-29T06:51:16.272Z,20.50
2023-01-29T06:53:45.979Z,21.30
2023-01-29T06:56:14.327Z,19.77
2023-01-29T06:58:43.458Z,21.70
2023-01-29T07:01:22.155Z,19.83
2023-01-29T07:03:57.027Z,20.73
2023-01-29T07:06:31.410Z,20.50
2023-01-29T07:08:59.004Z,19.30
2023-01-29T07:11:26.568Z,19.70
2023-01-29T07:13:54.162Z,20.77
2023-01-29T07:16:21.881Z,20.00
2023-01-29T07:18:49.501Z,18.17
2023-01-29T07:21:17.157Z,19.93
2023-01-29T07:23:44.800Z,21.37
2023-01-29T07:26:12.568Z,20.87
2023-01-29T07:28:40.670Z,20.87
2023-01-29T07:31:11.430Z,21.03
2023-01-29T07:33:39.142Z,18.33
2023-01-29T07:36:11.612Z,19.63
2023-01-29T07:38:39.239Z,19.70
2023-01-29T07:41:07.176Z,19.60
2023-01-29T07:43:34.788Z,20.23
2023-01-29T07:46:04.696Z,19.40
2023-01-29T07:48:32.757Z,18.40
2023-01-29T07:51:00.768Z,20.00
2023-01-29T07:53:29.082Z,19.50
2023-01-29T07:55:57.408Z,17.60
2023-01-29T07:58:25.195Z,16.33
2023-01-29T08:00:52.812Z,18.87
2023-01-29T08:03:20.794Z,18.37
2023-01-29T08:05:48.755Z,18.07
2023-01-29T08:08:16.681Z,19.87
2023-01-29T08:10:44.259Z,18.27
2023-01-29T08:13:14.781Z,17.40
2023-01-29T08:15:46.051Z,18.37
2023-01-29T08:18:14.808Z,19.47
2023-01-29T08:20:42.613Z,18.30
2023-01-29T08:23:16.420Z,16.53
2023-01-29T08:25:44.171Z,15.87
2023-01-29T08:28:12.347Z,16.27
2023-01-29T08:30:40.425Z,16.83
2023-01-29T08:33:08.049Z,16.33
2023-01-29T08:35:36.162Z,17.23
2023-01-29T08:38:05.377Z,15.73
2023-01-29T08:40:34.996Z,14.60
2023-01-29T08:43:09.149Z,14.83
2023-01-29T08:45:40.991Z,15.60
2023-01-29T08:48:10.124Z,13.90
2023-01-29T08:50:38.323Z,12.80
2023-01-29T08:53:08.701Z,14.80
2023-01-29T08:55:39.025Z,15.07
2023-01-29T08:58:08.751Z,16.87
2023-01-29T09:00:36.582Z,14.80
2023-01-29T09:03:04.979Z,14.93
2023-01-29T09:05:32.545Z,13.80
2023-01-29T09:08:00.447Z,15.73
2023-01-29T09:10:28.111Z,14.67
2023-01-29T09:12:55.725Z,13.20
2023-01-29T09:15:23.874Z,14.13
2023-01-29T09:17:51.780Z,14.87
2023-01-29T09:20:19.869Z,14.97
2023-01-29T09:22:47.660Z,15.40
2023-01-29T09:27:39.311Z,13.73
2023-01-29T09:30:07.730Z,14.70
2023-01-29T09:35:24.051Z,15.67
2023-01-29T09:37:52.538Z,13.87
2023-01-29T09:40:40.643Z,14.20
2023-01-29T09:43:18.627Z,14.80
2023-01-29T09:46:12.900Z,12.70
2023-01-29T09:48:41.344Z,14.93
2023-01-29T09:51:28.823Z,12.20
2023-01-29T09:54:24.408Z,12.23
2023-01-29T09:56:57.068Z,13.93
2023-01-29T09:59:29.886Z,15.13
2023-01-29T10:02:15.556Z,14.83
2023-01-29T10:05:38.757Z,15.30
2023-01-29T10:08:48.062Z,12.00
2023-01-29T10:12:01.947Z,13.90
2023-01-29T10:14:56.433Z,12.90
2023-01-29T10:17:52.422Z,12.17
2023-01-29T10:21:19.294Z,14.73
2023-01-29T10:24:49.185Z,12.13
2023-01-29T10:27:18.859Z,13.77
2023-01-29T10:29:51.755Z,13.47
2023-01-29T10:32:24.106Z,12.10
2023-01-29T10:35:02.519Z,14.63
2023-01-29T10:37:43.665Z,15.10
2023-01-29T10:40:41.590Z,13.57
2023-01-29T10:43:29.606Z,13.40
2023-01-29T10:46:38.097Z,13.37
2023-01-29T10:49:45.167Z,14.27
2023-01-29T10:52:46.594Z,18.43
2023-01-29T10:55:34.980Z,13.47
2023-01-29T10:58:30.956Z,11.67
2023-01-29T11:00:59.007Z,12.70
2023-01-29T11:03:33.268Z,14.57
2023-01-29T11:06:32.040Z,14.83
2023-01-29T11:09:29.213Z,13.57
2023-01-29T11:12:13.302Z,13.10
2023-01-29T11:14:56.792Z,14.70
2023-01-29T11:17:26.166Z,13.03
2023-01-29T11:19:55.838Z,14.53
2023-01-29T11:22:28.961Z,14.67
2023-01-29T11:25:17.173Z,15.87
2023-01-29T11:27:52.805Z,15.17
2023-01-29T11:30:29.299Z,14.27
2023-01-29T11:33:23.757Z,13.87
2023-01-29T11:35:52.709Z,14.23
2023-01-29T11:38:29.063Z,12.87
2023-01-29T11:41:22.364Z,14.87
2023-01-29T11:43:50.920Z,14.97
2023-01-29T11:46:18.562Z,16.57
2023-01-29T11:48:51.486Z,13.77
2023-01-29T11:51:29.085Z,15.30
2023-01-29T11:54:04.142Z,15.00
2023-01-29T11:56:41.385Z,15.63
2023-01-29T11:59:37.266Z,13.53
2023-01-29T12:02:34.143Z,15.53
2023-01-29T12:05:26.299Z,16.87
2023-01-29T12:08:02.102Z,13.67
2023-01-29T12:10:37.006Z,14.63
2023-01-29T12:13:19.760Z,15.20
2023-01-29T12:15:49.293Z,13.10
2023-01-29T12:18:32.804Z,15.67
2023-01-29T12:21:05.019Z,15.10
2023-01-29T12:23:48.001Z,15.63
2023-01-29T12:26:24.272Z,16.63
2023-01-29T12:29:22.964Z,16.80
2023-01-29T12:32:06.170Z,15.57
2023-01-29T12:34:43.518Z,15.23
2023-01-29T12:37:38.041Z,16.70
2023-01-29T12:40:18.842Z,16.73
2023-01-29T12:42:52.008Z,18.43
2023-01-29T12:45:24.782Z,17.33
2023-01-29T12:47:57.456Z,17.13
2023-01-29T12:50:32.917Z,16.30
2023-01-29T12:53:16.462Z,16.63
2023-01-29T12:55:55.362Z,15.83
2023-01-29T12:58:32.288Z,18.73
2023-01-29T13:01:27.205Z,17.27
2023-01-29T13:04:14.956Z,18.03
2023-01-29T13:06:49.595Z,19.37
2023-01-29T13:09:26.883Z,18.00
2023-01-29T13:12:01.786Z,19.03
2023-01-29T13:15:21.910Z,18.43
2023-01-29T13:17:56.488Z,14.80
2023-01-29T13:20:31.987Z,19.33
2023-01-29T13:23:18.953Z,18.23
2023-01-29T13:25:52.097Z,19.27
2023-01-29T13:28:24.279Z,19.90
2023-01-29T13:31:36.868Z,20.47
2023-01-29T13:34:33.908Z,21.13
2023-01-29T13:37:38.010Z,23.53
2023-01-29T13:40:08.443Z,19.43
2023-01-29T13:42:55.510Z,21.23
2023-01-29T13:45:53.590Z,21.73
2023-01-29T13:48:28.783Z,20.40
2023-01-29T13:51:00.523Z,22.70
2023-01-29T13:53:33.274Z,22.07
2023-01-29T13:56:35.284Z,22.17
2023-01-29T13:59:06.077Z,18.40
2023-01-29T14:01:48.400Z,18.50
2023-01-29T14:04:18.794Z,18.27
2023-01-29T14:06:52.416Z,18.47
2023-01-29T14:09:49.388Z,16.60
2023-01-29T14:12:23.176Z,19.43
2023-01-29T14:14:56.711Z,18.87
2023-01-29T14:17:26.914Z,18.37
2023-01-29T14:20:19.100Z,18.23
2023-01-29T14:22:56.492Z,17.23
2023-01-29T14:25:40.878Z,16.23
2023-01-29T14:28:21.075Z,19.33
2023-01-29T14:30:49.807Z,19.47
2023-01-29T14:33:39.835Z,19.57
2023-01-29T14:36:15.924Z,16.47
2023-01-29T14:38:51.824Z,17.47
2023-01-29T14:41:32.377Z,19.40
2023-01-29T14:44:56.440Z,19.57
2023-01-29T14:47:32.841Z,19.80
2023-01-29T14:50:22.365Z,18.83
2023-01-29T14:52:53.998Z,19.13
2023-01-29T14:55:38.326Z,19.93
2023-01-29T14:58:12.702Z,20.70
2023-01-29T15:00:45.200Z,18.43
2023-01-29T15:03:49.731Z,19.07
2023-01-29T15:06:35.548Z,18.10
2023-01-29T15:09:36.508Z,16.77
2023-01-29T15:12:23.686Z,16.40
2023-01-29T15:15:19.352Z,17.10
2023-01-29T15:18:04.919Z,15.77
2023-01-29T15:20:36.579Z,17.53
2023-01-29T15:23:23.476Z,18.13
2023-01-29T15:25:55.079Z,16.57
2023-01-29T15:28:23.155Z,16.47
2023-01-29T15:30:59.233Z,15.93
2023-01-29T15:33:28.229Z,15.20
2023-01-29T15:36:07.407Z,16.63
2023-01-29T15:38:35.984Z,15.97
2023-01-29T15:41:17.299Z,16.47
2023-01-29T15:43:49.175Z,16.23
2023-01-29T15:46:25.544Z,16.93
2023-01-29T15:48:57.103Z,14.97
2023-01-29T15:51:27.250Z,16.87
2023-01-29T15:53:59.687Z,16.07
2023-01-29T15:56:40.875Z,14.00
2023-01-29T15:59:21.653Z,16.23
2023-01-29T16:01:49.519Z,16.33
2023-01-29T16:04:23.895Z,16.00
2023-01-29T16:06:54.209Z,14.87
2023-01-29T16:09:25.288Z,15.70
2023-01-29T16:11:57.344Z,15.03
2023-01-29T16:14:26.590Z,15.10
2023-01-29T16:16:55.435Z,14.50
2023-01-29T16:19:29.391Z,14.00
2023-01-29T16:22:02.236Z,15.13
2023-01-29T16:24:34.418Z,14.30
2023-01-29T16:27:14.836Z,14.03
2023-01-29T16:29:42.637Z,12.80
2023-01-29T16:32:13.686Z,14.40
2023-01-29T16:34:45.115Z,15.17
2023-01-29T16:37:46.374Z,13.97
2023-01-29T16:40:27.176Z,13.50
2023-01-29T16:43:45.401Z,14.57
2023-01-29T16:46:37.421Z,14.83
2023-01-29T16:49:37.576Z,13.37
2023-01-29T16:52:34.697Z,13.50
2023-01-29T16:55:25.212Z,12.73
2023-01-29T16:57:55.335Z,12.43
2023-01-29T17:00:30.920Z,13.13
2023-01-29T17:03:05.453Z,12.80
2023-01-29T17:05:36.969Z,12.30
2023-01-29T17:08:06.186Z,12.67
2023-01-29T17:10:34.037Z,14.13
2023-01-29T17:13:09.334Z,12.60
2023-01-29T17:15:46.543Z,12.77
2023-01-29T17:18:21.915Z,12.40
2023-01-29T17:20:50.831Z,12.43
2023-01-29T17:23:19.277Z,11.97
2023-01-29T17:25:47.942Z,12.60
2023-01-29T17:28:17.707Z,12.20
2023-01-29T17:30:56.612Z,12.50
2023-01-29T17:33:32.893Z,11.50
2023-01-29T17:36:00.580Z,12.23
2023-01-29T17:38:28.248Z,10.50
2023-01-29T17:41:04.241Z,11.80
2023-01-29T17:43:32.062Z,12.37
2023-01-29T17:45:59.683Z,12.30
2023-01-29T17:48:29.497Z,12.50
2023-01-29T17:51:01.932Z,12.67
2023-01-29T17:53:44.165Z,11.83
2023-01-29T17:56:27.425Z,12.67
2023-01-29T17:58:55.164Z,12.50
2023-01-29T18:01:22.789Z,11.43
2023-01-29T18:03:50.422Z,11.37
2023-01-29T18:06:28.477Z,12.20
2023-01-29T18:08:56.799Z,12.53
2023-01-29T18:11:24.841Z,12.43
2023-01-29T18:13:52.641Z,11.87
2023-01-29T18:16:24.439Z,11.03
2023-01-29T18:18:52.850Z,11.17
2023-01-29T18:21:20.600Z,11.13
2023-01-29T18:23:48.181Z,10.83
2023-01-29T18:26:16.897Z,12.10
2023-01-29T18:28:45.082Z,12.03
2023-01-29T18:31:14.351Z,11.23
2023-01-29T18:33:42.284Z,10.80
2023-01-29T18:36:09.893Z,10.80
2023-01-29T18:38:37.493Z,10.73
2023-01-29T18:41:10.809Z,11.50
2023-01-29T18:43:40.089Z,11.57
2023-01-29T18:46:09.323Z,8.83
2023-01-29T18:48:37.202Z,10.63
2023-01-29T18:51:05.862Z,10.07
2023-01-29T18:53:33.472Z,10.13
2023-01-29T18:56:04.706Z,8.67
2023-01-29T18:58:37.887Z,10.80
2023-01-29T19:01:09.797Z,10.20
2023-01-29T19:03:41.909Z,9.13
2023-01-29T19:06:11.742Z,7.87
2023-01-29T19:08:40.798Z,8.73
2023-01-29T19:11:09.005Z,9.03
2023-01-29T19:13:37.880Z,8.70
2023-01-29T19:16:13.442Z,9.27
2023-01-29T19:18:41.334Z,9.23
2023-01-29T19:21:12.819Z,8.27
2023-01-29T19:23:42.664Z,8.13
2023-01-29T19:26:11.394Z,8.20
2023-01-29T19:28:39.570Z,7.17
2023-01-29T19:31:07.894Z,7.30
2023-01-29T19:33:35.636Z,8.67
2023-01-29T19:36:03.479Z,7.57
2023-01-29T19:38:33.480Z,8.63
2023-01-29T19:41:01.090Z,7.77
2023-01-29T19:43:30.634Z,7.67
2023-01-29T19:46:00.913Z,8.00
2023-01-29T19:48:29.049Z,8.40
2023-01-29T19:51:08.316Z,7.37
2023-01-29T19:53:43.859Z,8.37
2023-01-29T19:56:15.137Z,8.40
2023-01-29T19:58:42.949Z,8.07
2023-01-29T20:01:20.347Z,7.90
2023-01-29T20:03:49.360Z,8.10
2023-01-29T20:06:21.989Z,8.50
2023-01-29T20:08:49.771Z,8.50
2023-01-29T20:11:21.486Z,9.43
2023-01-29T20:13:51.101Z,8.87
2023-01-29T20:16:19.417Z,8.90
2023-01-29T20:18:47.219Z,8.47
2023-01-29T20:21:22.617Z,8.83
2023-01-29T20:23:51.542Z,7.67
2023-01-29T20:26:20.328Z,8.20
2023-01-29T20:28:48.439Z,8.97
2023-01-29T20:31:16.879Z,7.57
2023-01-29T20:33:44.724Z,8.37
2023-01-29T20:36:14.572Z,8.93
2023-01-29T20:38:42.337Z,9.17
2023-01-29T20:41:15.583Z,7.90
2023-01-29T20:43:45.121Z,9.00
2023-01-29T20:46:13.342Z,9.27
2023-01-29T20:48:41.977Z,9.33
2023-01-29T20:51:16.784Z,8.67
2023-01-29T20:53:46.609Z,8.03
2023-01-29T20:56:16.598Z,8.70
2023-01-29T20:58:45.151Z,8.43
2023-01-29T21:01:16.595Z,8.80
2023-01-29T21:03:44.922Z,8.30
2023-01-29T21:06:13.873Z,9.83
2023-01-29T21:08:42.274Z,7.70
2023-01-29T21:11:10.754Z,9.83
2023-01-29T21:13:38.547Z,8.23
2023-01-29T21:16:06.908Z,9.53
2023-01-29T21:18:34.533Z,8.40
2023-01-29T21:21:02.189Z,9.50
2023-01-29T21:23:30.056Z,9.30
2023-01-29T21:26:06.031Z,9.27
2023-01-29T21:28:34.401Z,8.70
2023-01-29T21:31:04.606Z,8.13
2023-01-29T21:33:33.666Z,9.63
2023-01-29T21:36:02.029Z,9.50
2023-01-29T21:38:29.571Z,8.10
2023-01-29T21:41:02.483Z,9.37
2023-01-29T21:43:30.711Z,7.90
2023-01-29T21:46:03.831Z,7.43
2023-01-29T21:48:31.577Z,8.13
2023-01-29T21:50:59.274Z,7.93
2023-01-29T21:53:26.945Z,8.23
2023-01-29T21:56:01.194Z,8.63
2023-01-29T21:58:29.866Z,8.80
2023-01-29T22:01:35.659Z,8.57
2023-01-29T22:03:47.249Z,8.30
2023-01-29T22:06:15.778Z,7.80
2023-01-29T22:08:43.403Z,6.37
2023-01-29T22:11:11.359Z,7.60
2023-01-29T22:13:39.087Z,7.63
2023-01-29T22:16:07.408Z,8.17
2023-01-29T22:18:35.163Z,8.07
2023-01-29T22:21:02.957Z,8.87
2023-01-29T22:23:32.262Z,8.90
2023-01-29T22:26:08.883Z,8.27
2023-01-29T22:28:36.828Z,8.10
2023-01-29T22:31:05.462Z,8.13
2023-01-29T22:33:33.579Z,7.93
2023-01-29T22:36:01.445Z,7.63
2023-01-29T22:38:29.604Z,8.73
2023-01-29T22:40:59.662Z,7.37
2023-01-29T22:43:27.415Z,8.33
2023-01-29T22:45:56.326Z,8.37
2023-01-29T22:48:24.131Z,8.30
2023-01-29T22:51:11.884Z,8.00
2023-01-29T22:53:54.727Z,7.80
2023-01-29T22:56:26.170Z,9.37
2023-01-29T22:58:59.203Z,8.83
2023-01-29T23:01:30.034Z,9.87
2023-01-29T23:03:57.959Z,8.33
2023-01-29T23:06:25.649Z,9.17
2023-01-29T23:08:53.454Z,10.57
2023-01-29T23:11:23.404Z,9.27
2023-01-29T23:13:54.275Z,9.53
2023-01-29T23:16:27.985Z,10.00
2023-01-29T23:18:57.007Z,10.53
2023-01-29T23:21:26.153Z,10.10
2023-01-29T23:24:01.296Z,10.30
2023-01-29T23:26:48.040Z,11.67
2023-01-29T23:29:15.919Z,11.83
2023-01-29T23:31:43.632Z,11.57
2023-01-29T23:34:11.411Z,9.57
2023-01-29T23:36:39.025Z,12.27
2023-01-29T23:39:06.931Z,11.43
2023-01-29T23:41:34.663Z,11.27
2023-01-29T23:44:02.382Z,12.33
2023-01-29T23:46:30.479Z,10.70
2023-01-29T23:48:58.430Z,12.80
2023-01-29T23:51:26.198Z,12.40
2023-01-29T23:53:54.019Z,12.57
2023-01-29T23:56:21.840Z,13.10
2023-01-29T23:58:56.944Z,13.33
